createdAt,value
2023-02-22T00:02:11.173Z,94519.25
2023-02-22T00:04:39.848Z,94525.19
2023-02-22T00:07:07.571Z,94515.72
2023-02-22T00:09:34.572Z,94494.84
2023-02-22T00:12:01.404Z,94499.75
2023-02-22T00:14:28.590Z,94517.31
2023-02-22T00:16:59.746Z,94513.56
2023-02-22T00:19:30.220Z,94510.38
2023-02-22T00:21:58.193Z,94511.84
2023-02-22T00:24:25.120Z,94509.13
2023-02-22T00:26:56.798Z,94504.84
2023-02-22T00:29:25.058Z,94501.16
2023-02-22T00:31:52.457Z,94507.88
2023-02-22T00:34:19.401Z,94508.06
2023-02-22T00:36:48.588Z,94499.22
2023-02-22T00:39:16.061Z,94506.78
2023-02-22T00:41:43.081Z,94517.59
2023-02-22T00:44:09.930Z,94505.38
2023-02-22T00:46:36.665Z,94503.03
2023-02-22T00:49:03.785Z,94501.00
2023-02-22T00:51:30.864Z,94517.25
2023-02-22T00:53:57.617Z,94514.41
2023-02-22T00:56:24.651Z,94505.19
2023-02-22T00:58:52.733Z,94514.69
2023-02-22T01:01:19.697Z,94511.06
2023-02-22T01:03:46.512Z,94502.16
2023-02-22T01:06:13.272Z,94504.78
2023-02-22T01:08:45.536Z,94500.66
2023-02-22T01:11:13.835Z,94498.97
2023-02-22T01:13:40.716Z,94498.94
2023-02-22T01:16:08.437Z,94497.44
2023-02-22T01:18:36.826Z,94497.44
2023-02-22T01:21:04.919Z,94502.59
2023-02-22T01:23:32.046Z,94495.31
2023-02-22T01:25:58.935Z,94489.94
2023-02-22T01:28:25.717Z,94493.97
2023-02-22T01:30:52.757Z,94472.31
2023-02-22T01:33:19.575Z,94476.69
2023-02-22T01:35:46.989Z,94467.38
2023-02-22T01:38:14.568Z,94473.97
2023-02-22T01:40:47.137Z,94466.22
2023-02-22T01:43:27.054Z,94466.69
2023-02-22T01:46:23.562Z,94468.38
2023-02-22T01:49:06.403Z,94463.63
2023-02-22T01:51:40.892Z,94461.00
2023-02-22T01:54:17.329Z,94461.22
2023-02-22T01:57:07.060Z,94460.00
2023-02-22T01:59:38.296Z,94455.66
2023-02-22T02:02:05.296Z,94445.84
2023-02-22T02:04:33.873Z,94455.69
2023-02-22T02:07:06.219Z,94447.00
2023-02-22T02:09:39.922Z,94452.22
2023-02-22T02:12:10.430Z,94456.84
2023-02-22T02:14:40.494Z,94451.56
2023-02-22T02:17:13.823Z,94435.47
2023-02-22T02:20:00.280Z,94432.78
2023-02-22T02:22:57.781Z,94443.94
2023-02-22T02:26:15.271Z,94428.84
2023-02-22T02:28:59.961Z,94437.31
2023-02-22T02:32:08.361Z,94427.72
2023-02-22T02:35:11.524Z,94421.38
2023-02-22T02:37:45.174Z,94416.31
2023-02-22T02:40:50.376Z,94417.13
2023-02-22T02:43:47.942Z,94412.47
2023-02-22T02:46:43.474Z,94402.94
2023-02-22T02:49:20.739Z,94390.28
2023-02-22T02:51:54.012Z,94390.94
2023-02-22T02:54:22.934Z,94392.22
2023-02-22T02:56:51.380Z,94396.88
2023-02-22T02:59:26.317Z,94398.09
2023-02-22T03:02:30.520Z,94401.28
2023-02-22T03:05:34.681Z,94393.75
2023-02-22T03:08:35.838Z,94391.09
2023-02-22T03:11:16.579Z,94392.56
2023-02-22T03:14:33.804Z,94396.94
2023-02-22T03:17:00.653Z,94395.97
2023-02-22T03:19:43.508Z,94388.03
2023-02-22T03:22:15.885Z,94383.69
2023-02-22T03:25:09.467Z,94376.03
2023-02-22T03:27:53.414Z,94376.03
2023-02-22T03:30:28.100Z,94373.25
2023-02-22T03:33:09.128Z,94368.38
2023-02-22T03:35:41.478Z,94374.69
2023-02-22T03:38:12.128Z,94379.69
2023-02-22T03:40:48.898Z,94369.72
2023-02-22T03:43:51.078Z,94374.03
2023-02-22T03:46:19.652Z,94367.44
2023-02-22T03:49:16.786Z,94385.22
2023-02-22T03:51:43.809Z,94372.50
2023-02-22T03:54:16.605Z,94375.91
2023-02-22T03:57:26.559Z,94382.81
2023-02-22T03:59:53.406Z,94371.38
2023-02-22T04:02:20.197Z,94369.09
2023-02-22T04:04:47.934Z,94375.50
2023-02-22T04:07:15.116Z,94378.59
2023-02-22T04:09:42.069Z,94372.53
2023-02-22T04:12:08.957Z,94377.38
2023-02-22T04:14:36.113Z,94388.97
2023-02-22T04:17:02.844Z,94382.13
2023-02-22T04:19:29.599Z,94385.84
2023-02-22T04:21:56.333Z,94386.66
2023-02-22T04:24:23.085Z,94387.06
2023-02-22T04:26:50.370Z,94386.88
2023-02-22T04:29:17.132Z,94389.03
2023-02-22T04:31:43.889Z,94383.78
2023-02-22T04:34:10.731Z,94384.09
2023-02-22T04:36:37.461Z,94387.72
2023-02-22T04:39:05.485Z,94377.00
2023-02-22T04:41:32.322Z,94389.56
2023-02-22T04:44:00.724Z,94392.66
2023-02-22T04:46:27.679Z,94389.38
2023-02-22T04:48:54.945Z,94396.78
2023-02-22T04:51:21.739Z,94387.50
2023-02-22T04:53:48.512Z,94389.97
2023-02-22T04:56:19.057Z,94391.72
2023-02-22T04:58:46.060Z,94381.31
2023-02-22T05:01:12.873Z,94386.56
2023-02-22T05:03:39.596Z,94389.56
2023-02-22T05:06:07.014Z,94381.63
2023-02-22T05:08:33.772Z,94381.31
2023-02-22T05:11:00.585Z,94384.81
2023-02-22T05:13:27.338Z,94376.97
2023-02-22T05:15:54.560Z,94372.63
2023-02-22T05:18:21.338Z,94376.75
2023-02-22T05:20:48.116Z,94372.81
2023-02-22T05:23:15.563Z,94373.84
2023-02-22T05:25:42.500Z,94378.78
2023-02-22T05:28:14.091Z,94370.34
2023-02-22T05:30:41.871Z,94371.78
2023-02-22T05:33:09.760Z,94368.69
2023-02-22T05:35:37.272Z,94365.00
2023-02-22T05:38:05.829Z,94360.47
2023-02-22T05:40:33.483Z,94363.09
2023-02-22T05:43:02.284Z,94355.09
2023-02-22T05:45:29.313Z,94364.19
2023-02-22T05:47:56.448Z,94361.28
2023-02-22T05:50:24.730Z,94361.78
2023-02-22T05:52:52.175Z,94350.97
2023-02-22T05:55:22.828Z,94356.13
2023-02-22T05:57:50.181Z,94357.56
2023-02-22T06:00:25.996Z,94357.88
2023-02-22T06:03:02.830Z,94350.56
2023-02-22T06:05:30.450Z,94356.53
2023-02-22T06:07:58.638Z,94352.59
2023-02-22T06:10:26.185Z,94346.84
2023-02-22T06:12:53.895Z,94350.16
2023-02-22T06:15:22.654Z,94351.09
2023-02-22T06:17:49.638Z,94353.44
2023-02-22T06:20:21.484Z,94360.69
2023-02-22T06:22:50.082Z,94347.97
2023-02-22T06:25:20.999Z,94349.72
2023-02-22T06:27:48.228Z,94353.03
2023-02-22T06:30:18.261Z,94351.28
2023-02-22T06:32:45.041Z,94353.03
2023-02-22T06:35:11.997Z,94343.34
2023-02-22T06:37:40.191Z,94349.31
2023-02-22T06:40:07.793Z,94349.94
2023-02-22T06:42:34.717Z,94356.97
2023-02-22T06:45:01.576Z,94361.06
2023-02-22T06:47:28.791Z,94357.78
2023-02-22T06:49:57.460Z,94339.94
2023-02-22T06:52:25.073Z,94365.63
2023-02-22T06:54:52.211Z,94360.38
2023-02-22T06:57:19.200Z,94360.06
2023-02-22T06:59:45.984Z,94359.22
2023-02-22T07:02:13.711Z,94376.88
2023-02-22T07:04:43.302Z,94366.44
2023-02-22T07:07:11.221Z,94364.88
2023-02-22T07:09:37.943Z,94367.13
2023-02-22T07:12:05.013Z,94362.50
2023-02-22T07:14:31.731Z,94354.84
2023-02-22T07:16:58.458Z,94368.06
2023-02-22T07:19:25.221Z,94354.13
2023-02-22T07:21:59.317Z,94366.19
2023-02-22T07:24:28.629Z,94370.22
2023-02-22T07:26:55.522Z,94366.41
2023-02-22T07:29:22.645Z,94358.97
2023-02-22T07:31:49.662Z,94365.34
2023-02-22T07:34:16.512Z,94356.44
2023-02-22T07:36:43.478Z,94342.38
2023-02-22T07:39:11.665Z,94363.63
2023-02-22T07:41:38.459Z,94358.03
2023-02-22T07:44:05.302Z,94352.13
2023-02-22T07:46:32.005Z,94366.25
2023-02-22T07:48:58.746Z,94363.94
2023-02-22T07:51:25.627Z,94350.91
2023-02-22T07:53:52.484Z,94352.94
2023-02-22T07:56:19.242Z,94353.94
2023-02-22T07:58:46.018Z,94361.03
2023-02-22T08:01:12.777Z,94361.84
2023-02-22T08:03:39.729Z,94352.22
2023-02-22T08:06:08.085Z,94343.31
2023-02-22T08:08:35.283Z,94362.06
2023-02-22T08:11:02.180Z,94348.16
2023-02-22T08:13:29.265Z,94356.69
2023-02-22T08:15:56.278Z,94352.72
2023-02-22T08:18:24.858Z,94356.38
2023-02-22T08:20:53.164Z,94344.25
2023-02-22T08:23:23.128Z,94347.47
2023-02-22T08:25:49.886Z,94342.03
2023-02-22T08:28:21.662Z,94341.56
2023-02-22T08:30:48.543Z,94345.22
2023-02-22T08:33:19.816Z,94347.25
2023-02-22T08:35:52.016Z,94352.50
2023-02-22T08:38:28.541Z,94340.31
2023-02-22T08:40:55.506Z,94340.88
2023-02-22T08:43:23.392Z,94343.56
2023-02-22T08:45:50.471Z,94337.91
2023-02-22T08:48:18.380Z,94333.63
2023-02-22T08:50:45.812Z,94335.53
2023-02-22T08:53:14.657Z,94338.22
2023-02-22T08:55:42.366Z,94333.34
2023-02-22T08:58:09.855Z,94340.84
2023-02-22T09:00:39.101Z,94336.44
2023-02-22T09:03:10.725Z,94333.34
2023-02-22T09:05:37.842Z,94328.72
2023-02-22T09:08:05.810Z,94314.94
2023-02-22T09:10:35.902Z,94333.50
2023-02-22T09:13:04.779Z,94328.50
2023-02-22T09:15:32.968Z,94318.13
2023-02-22T09:18:00.065Z,94322.28
2023-02-22T09:20:28.362Z,94321.25
2023-02-22T09:22:55.615Z,94313.53
2023-02-22T09:25:23.630Z,94320.84
2023-02-22T09:27:53.459Z,94324.25
2023-02-22T09:30:35.604Z,94303.66
2023-02-22T09:33:14.914Z,94308.38
2023-02-22T09:35:46.412Z,94306.50
2023-02-22T09:38:20.378Z,94294.75
2023-02-22T09:40:54.799Z,94299.69
2023-02-22T09:43:36.392Z,94293.66
2023-02-22T09:46:45.753Z,94291.84
2023-02-22T09:49:32.649Z,94282.59
2023-02-22T09:52:07.629Z,94291.63
2023-02-22T09:54:41.273Z,94285.22
2023-02-22T09:57:16.863Z,94289.53
2023-02-22T10:00:13.839Z,94278.63
2023-02-22T10:02:54.744Z,94275.97
2023-02-22T10:05:28.042Z,94279.06
2023-02-22T10:08:01.221Z,94262.53
2023-02-22T10:10:33.713Z,94264.44
2023-02-22T10:13:21.374Z,94268.53
2023-02-22T10:16:17.315Z,94272.41
2023-02-22T10:19:25.921Z,94264.81
2023-02-22T10:22:26.690Z,94261.69
2023-02-22T10:25:05.058Z,94255.22
2023-02-22T10:27:51.336Z,94258.84
2023-02-22T10:30:25.991Z,94253.91
2023-02-22T10:33:17.802Z,94246.94
2023-02-22T10:35:47.067Z,94249.56
2023-02-22T10:38:26.776Z,94241.84
2023-02-22T10:41:00.124Z,94238.19
2023-02-22T10:43:27.543Z,94219.31
2023-02-22T10:46:01.525Z,94228.31
2023-02-22T10:48:31.617Z,94231.88
2023-02-22T10:51:05.036Z,94219.97
2023-02-22T10:53:34.407Z,94225.66
2023-02-22T10:56:09.729Z,94211.19
2023-02-22T10:59:02.422Z,94218.09
2023-02-22T11:01:38.743Z,94216.72
2023-02-22T11:04:22.533Z,94213.41
2023-02-22T11:07:08.596Z,94199.50
2023-02-22T11:09:52.177Z,94199.19
2023-02-22T11:12:34.386Z,94197.78
2023-02-22T11:15:19.746Z,94194.56
2023-02-22T11:17:48.723Z,94200.38
2023-02-22T11:20:27.532Z,94181.84
2023-02-22T11:22:58.305Z,94185.47
2023-02-22T11:25:31.828Z,94184.06
2023-02-22T11:28:15.504Z,94182.00
2023-02-22T11:30:44.668Z,94170.22
2023-02-22T11:33:17.204Z,94172.97
2023-02-22T11:36:02.289Z,94181.78
2023-02-22T11:38:37.785Z,94157.13
2023-02-22T11:41:28.041Z,94167.69
2023-02-22T11:43:54.819Z,94161.09
2023-02-22T11:46:35.138Z,94143.81
2023-02-22T11:49:07.262Z,94154.88
2023-02-22T11:52:07.514Z,94148.59
2023-02-22T11:55:09.925Z,94138.44
2023-02-22T11:58:01.641Z,94139.69
2023-02-22T12:00:45.522Z,94143.75
2023-02-22T12:03:50.714Z,94137.41
2023-02-22T12:06:24.856Z,94131.13
2023-02-22T12:09:25.108Z,94134.41
2023-02-22T12:12:12.755Z,94127.03
2023-02-22T12:14:58.704Z,94126.25
2023-02-22T12:18:06.015Z,94127.06
2023-02-22T12:20:41.186Z,94121.16
2023-02-22T12:23:30.269Z,94122.34
2023-02-22T12:26:14.714Z,94119.50
2023-02-22T12:28:48.636Z,94111.19
2023-02-22T12:31:39.017Z,94116.44
2023-02-22T12:34:20.128Z,94117.41
2023-02-22T12:36:53.389Z,94115.16
2023-02-22T12:39:53.765Z,94112.50
2023-02-22T12:42:56.700Z,94112.38
2023-02-22T12:45:38.557Z,94105.59
2023-02-22T12:48:48.895Z,94099.78
2023-02-22T12:51:25.985Z,94113.59
2023-02-22T12:54:02.271Z,94105.81
2023-02-22T12:56:39.936Z,94100.59
2023-02-22T12:59:19.650Z,94112.06
2023-02-22T13:01:57.290Z,94106.84
2023-02-22T13:04:24.443Z,94105.13
2023-02-22T13:07:31.917Z,94106.00
2023-02-22T13:11:09.275Z,94100.09
2023-02-22T13:13:57.653Z,94097.03
2023-02-22T13:17:20.911Z,94109.06
2023-02-22T13:20:36.862Z,94105.97
2023-02-22T13:23:22.501Z,94096.31
2023-02-22T13:26:03.812Z,94084.31
2023-02-22T13:28:32.838Z,94089.97
2023-02-22T13:31:29.142Z,94091.75
2023-02-22T13:34:26.268Z,94097.31
2023-02-22T13:37:23.316Z,94096.22
2023-02-22T13:40:06.710Z,94096.66
2023-02-22T13:43:06.628Z,94092.84
2023-02-22T13:46:00.964Z,94094.31
2023-02-22T13:49:25.588Z,94099.59
2023-02-22T13:52:02.127Z,94093.56
2023-02-22T13:54:54.607Z,94095.16
2023-02-22T13:57:24.733Z,94098.41
2023-02-22T14:00:16.609Z,94102.84
2023-02-22T14:03:13.374Z,94102.84
2023-02-22T14:05:41.387Z,94103.31
2023-02-22T14:08:14.131Z,94092.09
2023-02-22T14:10:43.776Z,94098.88
2023-02-22T14:13:12.106Z,94092.78
2023-02-22T14:16:00.283Z,94101.47
2023-02-22T14:18:38.117Z,94109.13
2023-02-22T14:21:15.952Z,94101.75
2023-02-22T14:23:48.066Z,94088.16
2023-02-22T14:26:32.336Z,94096.72
2023-02-22T14:29:08.239Z,94093.78
2023-02-22T14:32:00.459Z,94091.00
2023-02-22T14:34:58.188Z,94097.19
2023-02-22T14:37:29.344Z,94088.84
2023-02-22T14:40:15.666Z,94099.09
2023-02-22T14:42:52.021Z,94104.25
2023-02-22T14:45:30.202Z,94101.88
2023-02-22T14:48:25.233Z,94101.63
2023-02-22T14:51:11.922Z,94103.97
2023-02-22T14:53:53.270Z,94104.59
2023-02-22T14:56:25.811Z,94097.94
2023-02-22T14:58:59.225Z,94100.63
2023-02-22T15:01:55.377Z,94102.94
2023-02-22T15:04:31.140Z,94103.81
2023-02-22T15:07:00.122Z,94105.91
2023-02-22T15:09:34.735Z,94098.38
2023-02-22T15:12:05.213Z,94098.66
2023-02-22T15:14:39.145Z,94097.53
2023-02-22T15:17:25.088Z,94099.13
2023-02-22T15:19:52.864Z,94098.34
2023-02-22T15:22:24.554Z,94102.38
2023-02-22T15:25:05.638Z,94100.75
2023-02-22T15:27:36.999Z,94096.72
2023-02-22T15:30:23.434Z,94097.78
2023-02-22T15:33:04.967Z,94104.31
2023-02-22T15:35:33.700Z,94103.69
2023-02-22T15:38:12.777Z,94104.53
2023-02-22T15:40:43.220Z,94108.13
2023-02-22T15:43:24.331Z,94105.88
2023-02-22T15:45:52.696Z,94098.34
2023-02-22T15:48:19.704Z,94090.22
2023-02-22T15:51:09.420Z,94100.22
2023-02-22T15:53:46.046Z,94101.25
2023-02-22T15:56:31.600Z,94100.47
2023-02-22T15:59:33.414Z,94106.19
2023-02-22T16:02:01.752Z,94104.00
2023-02-22T16:08:55.524Z,94105.88
2023-02-22T16:11:39.881Z,94086.56
2023-02-22T16:14:25.879Z,94120.34
2023-02-22T16:17:31.587Z,94120.56
2023-02-22T16:20:19.305Z,94124.59
2023-02-22T16:22:51.052Z,94117.25
2023-02-22T16:25:24.923Z,94130.66
2023-02-22T16:28:03.130Z,94112.69
2023-02-22T16:30:32.941Z,94120.31
2023-02-22T16:33:00.968Z,94140.22
2023-02-22T16:35:29.521Z,94115.50
2023-02-22T16:38:03.119Z,94118.91
2023-02-22T16:40:39.919Z,94123.63
2023-02-22T16:43:14.990Z,94132.31
2023-02-22T16:45:42.661Z,94117.31
2023-02-22T16:48:27.612Z,94149.56
2023-02-22T16:50:57.237Z,94133.78
2023-02-22T16:53:26.788Z,94152.06
2023-02-22T16:56:04.172Z,94149.56
2023-02-22T16:58:35.093Z,94154.28
2023-02-22T17:01:01.995Z,94147.34
2023-02-22T17:03:29.607Z,94156.63
2023-02-22T17:05:56.747Z,94164.34
2023-02-22T17:08:24.133Z,94166.44
2023-02-22T17:10:56.785Z,94153.56
2023-02-22T17:13:27.240Z,94158.19
2023-02-22T17:15:55.150Z,94179.03
2023-02-22T17:18:24.816Z,94171.22
2023-02-22T17:20:53.342Z,94168.22
2023-02-22T17:23:21.370Z,94175.47
2023-02-22T17:26:00.701Z,94182.38
2023-02-22T17:28:27.627Z,94148.56
2023-02-22T17:31:00.617Z,94197.44
2023-02-22T17:33:31.433Z,94186.09
2023-02-22T17:35:59.596Z,94195.78
2023-02-22T17:38:29.114Z,94195.50
2023-02-22T17:40:58.987Z,94193.66
2023-02-22T17:43:28.045Z,94200.47
2023-02-22T17:45:56.041Z,94195.78
2023-02-22T17:48:24.367Z,94201.66
2023-02-22T17:50:52.390Z,94211.53
2023-02-22T17:53:22.881Z,94209.59
2023-02-22T17:55:49.992Z,94227.28
2023-02-22T17:58:17.872Z,94214.31
2023-02-22T18:00:49.034Z,94209.63
2023-02-22T18:03:25.815Z,94199.13
2023-02-22T18:05:57.719Z,94212.91
2023-02-22T18:08:26.381Z,94213.47
2023-02-22T18:10:56.545Z,94212.97
2023-02-22T18:13:26.652Z,94228.03
2023-02-22T18:15:53.634Z,94228.72
2023-02-22T18:18:22.216Z,94238.19
2023-02-22T18:20:51.575Z,94225.59
2023-02-22T18:23:22.456Z,94208.72
2023-02-22T18:26:09.000Z,94236.88
2023-02-22T18:28:36.977Z,94228.69
2023-02-22T18:31:16.575Z,94236.38
2023-02-22T18:33:51.059Z,94233.28
2023-02-22T18:36:25.656Z,94225.59
2023-02-22T18:38:54.813Z,94220.69
2023-02-22T18:41:26.856Z,94225.41
2023-02-22T18:44:00.520Z,94234.94
2023-02-22T18:46:30.073Z,94219.88
2023-02-22T18:48:57.165Z,94228.69
2023-02-22T18:51:25.816Z,94235.88
2023-02-22T18:53:57.070Z,94209.69
2023-02-22T18:56:29.644Z,94215.59
2023-02-22T18:59:00.534Z,94232.31
2023-02-22T19:01:28.118Z,94233.28
2023-02-22T19:03:55.755Z,94222.31
2023-02-22T19:06:22.703Z,94224.44
2023-02-22T19:08:50.824Z,94213.47
2023-02-22T19:11:22.157Z,94218.56
2023-02-22T19:13:52.708Z,94214.28
2023-02-22T19:16:22.579Z,94222.47
2023-02-22T19:18:52.495Z,94213.94
2023-02-22T19:21:20.828Z,94215.09
2023-02-22T19:23:48.895Z,94221.84
2023-02-22T19:26:24.638Z,94222.78
2023-02-22T19:28:54.344Z,94218.06
2023-02-22T19:31:31.535Z,94210.34
2023-02-22T19:34:10.851Z,94212.16
2023-02-22T19:36:40.181Z,94225.41
2023-02-22T19:39:07.776Z,94221.34
2023-02-22T19:41:34.631Z,94222.78
2023-02-22T19:44:02.052Z,94218.53
2023-02-22T19:46:28.907Z,94232.13
2023-02-22T19:48:55.979Z,94228.69
2023-02-22T19:51:27.878Z,94222.78
2023-02-22T19:53:59.248Z,94211.81
2023-02-22T19:56:31.133Z,94227.69
2023-02-22T19:59:19.177Z,94231.75
2023-02-22T20:01:45.886Z,94238.00
2023-02-22T20:04:36.445Z,94223.91
2023-02-22T20:07:03.939Z,94231.59
2023-02-22T20:09:36.520Z,94231.94
2023-02-22T20:12:05.345Z,94237.97
2023-02-22T20:14:33.671Z,94220.09
2023-02-22T20:17:00.598Z,94234.81
2023-02-22T20:19:28.586Z,94239.03
2023-02-22T20:21:56.498Z,94232.66
2023-02-22T20:24:24.595Z,94238.06
2023-02-22T20:26:55.806Z,94244.88
2023-02-22T20:29:29.534Z,94239.63
2023-02-22T20:32:01.283Z,94240.81
2023-02-22T20:34:32.608Z,94236.38
2023-02-22T20:37:01.064Z,94225.88
2023-02-22T20:39:28.055Z,94237.69
2023-02-22T20:41:55.108Z,94233.63
2023-02-22T20:44:22.017Z,94247.22
2023-02-22T20:46:49.259Z,94244.47
2023-02-22T20:49:19.868Z,94235.31
2023-02-22T20:51:48.226Z,94250.41
2023-02-22T20:54:16.924Z,94251.91
2023-02-22T20:56:45.851Z,94250.09
2023-02-22T20:59:16.755Z,94253.00
2023-02-22T21:01:43.958Z,94236.31
2023-02-22T21:04:11.918Z,94249.06
2023-02-22T21:06:40.469Z,94241.22
2023-02-22T21:09:11.983Z,94238.09
2023-02-22T21:11:40.171Z,94230.88
2023-02-22T21:14:07.322Z,94240.13
2023-02-22T21:16:36.949Z,94244.50
2023-02-22T21:19:07.238Z,94248.25
2023-02-22T21:21:35.262Z,94251.69
2023-02-22T21:24:02.310Z,94248.88
2023-02-22T21:26:32.712Z,94231.38
2023-02-22T21:29:05.924Z,94242.34
2023-02-22T21:31:34.447Z,94254.59
2023-02-22T21:34:02.163Z,94232.66
2023-02-22T21:36:29.693Z,94224.44
2023-02-22T21:39:00.050Z,94243.47
2023-02-22T21:41:31.282Z,94249.78
2023-02-22T21:43:59.669Z,94245.69
2023-02-22T21:46:29.414Z,94244.53
2023-02-22T21:48:58.965Z,94236.81
2023-02-22T21:51:31.625Z,94228.78
2023-02-22T21:54:01.188Z,94247.22
2023-02-22T21:56:31.543Z,94245.59
2023-02-22T21:59:14.757Z,94247.31
2023-02-22T22:01:50.138Z,94226.84
2023-02-22T22:04:29.620Z,94233.63
2023-02-22T22:06:59.327Z,94231.06
2023-02-22T22:09:32.869Z,94231.47
2023-02-22T22:12:04.922Z,94228.03
2023-02-22T22:14:33.373Z,94238.91
2023-02-22T22:17:01.616Z,94229.72
2023-02-22T22:19:30.634Z,94232.28
2023-02-22T22:21:58.478Z,94235.09
2023-02-22T22:24:28.821Z,94228.25
2023-02-22T22:26:56.267Z,94238.91
2023-02-22T22:29:28.581Z,94226.97
2023-02-22T22:31:56.105Z,94231.53
2023-02-22T22:34:29.497Z,94214.88
2023-02-22T22:36:59.363Z,94231.09
2023-02-22T22:39:27.185Z,94221.38
2023-02-22T22:41:54.185Z,94211.38
2023-02-22T22:44:24.188Z,94228.00
2023-02-22T22:46:54.865Z,94225.09
2023-02-22T22:49:24.115Z,94232.13
2023-02-22T22:51:51.364Z,94229.34
2023-02-22T22:54:18.411Z,94224.44
2023-02-22T22:56:45.302Z,94233.59
2023-02-22T22:59:13.535Z,94224.13
2023-02-22T23:01:44.827Z,94231.94
2023-02-22T23:04:18.782Z,94228.25
2023-02-22T23:06:52.250Z,94237.03
2023-02-22T23:09:29.650Z,94238.63
2023-02-22T23:12:09.147Z,94230.13
2023-02-22T23:14:39.746Z,94216.00
2023-02-22T23:17:15.315Z,94234.06
2023-02-22T23:19:47.386Z,94230.34
2023-02-22T23:22:14.661Z,94231.13
2023-02-22T23:24:41.739Z,94232.34
2023-02-22T23:27:10.895Z,94230.34
2023-02-22T23:29:40.294Z,94221.69
2023-02-22T23:32:07.943Z,94229.34
2023-02-22T23:34:36.664Z,94228.91
2023-02-22T23:37:03.679Z,94232.63
2023-02-22T23:39:30.492Z,94235.41
2023-02-22T23:41:59.618Z,94210.34
2023-02-22T23:44:27.612Z,94219.66
2023-02-22T23:46:55.820Z,94232.53
2023-02-22T23:49:27.045Z,94243.63
2023-02-22T23:51:54.014Z,94238.88
2023-02-22T23:54:24.579Z,94240.22
2023-02-22T23:56:57.750Z,94238.81
2023-02-22T23:59:26.805Z,94225.38
